Ennis, Montana
Current Conditions -  °F | °C
As of 7:53 PM on Friday 19 Dec 2014 (Local Time) from KDLN Reporting Station
Broken Clouds Broken Clouds  
Wind Chill: 24°   Ceiling: 4900
Heat Index: 32°   Visibility: 10mi
Dew Point: 24°   Wind: 10mph
Humidity: 73%   Direction: 210°SSW
Pressure: 29.94"   Gusts: NA
Location:  45.35°N, 111.73°W
Report Text: KDLN 200253Z AUTO 21009KT 10SM BKN049 00/M04 A2994 RMK AO2 SLP163 T00001044 53005
Loading
Personal Weather Stations






























Interactive Weather Map New forecast layout! Learn more

10-Day Weather Forecast

Advertisements
Track Severe Weather on mobile